createdAt,value
2023-03-25T00:00:16.496Z,98628.47
2023-03-25T00:05:57.159Z,98624.63
2023-03-25T00:11:28.582Z,98622.63
2023-03-25T00:13:56.045Z,98609.88
2023-03-25T00:16:23.485Z,98631.59
2023-03-25T00:18:51.172Z,98630.59
2023-03-25T00:21:20.771Z,98624.69
2023-03-25T00:23:48.185Z,98625.94
2023-03-25T00:26:15.830Z,98622.66
2023-03-25T00:28:43.321Z,98622.44
2023-03-25T00:31:13.420Z,98623.72
2023-03-25T00:33:42.488Z,98639.22
2023-03-25T00:39:06.777Z,98626.38
2023-03-25T00:41:35.721Z,98623.53
2023-03-25T00:44:04.130Z,98619.00
2023-03-25T00:46:33.178Z,98625.13
2023-03-25T00:49:01.025Z,98608.81
2023-03-25T00:54:27.928Z,98632.06
2023-03-25T00:56:56.051Z,98616.22
2023-03-25T01:02:26.693Z,98630.81
2023-03-25T01:04:54.946Z,98617.97
2023-03-25T01:07:22.381Z,98626.56
2023-03-25T01:09:51.134Z,98639.25
2023-03-25T01:15:17.634Z,98620.69
2023-03-25T01:17:45.154Z,98625.09
2023-03-25T01:20:12.983Z,98629.66
2023-03-25T01:25:44.801Z,98624.41
2023-03-25T01:28:12.283Z,98627.13
2023-03-25T01:30:39.706Z,98607.13
2023-03-25T01:33:07.843Z,98623.13
2023-03-25T01:35:35.266Z,98627.94
2023-03-25T01:40:53.236Z,98624.50
2023-03-25T01:43:20.753Z,98625.22
2023-03-25T01:45:49.451Z,98623.31
2023-03-25T01:48:20.011Z,98621.59
2023-03-25T01:53:46.235Z,98615.78
2023-03-25T01:56:18.408Z,98621.13
2023-03-25T01:58:46.580Z,98614.78
2023-03-25T02:01:15.047Z,98619.50
2023-03-25T02:06:44.439Z,98618.03
2023-03-25T02:09:14.476Z,98618.25
2023-03-25T02:11:43.276Z,98608.63
2023-03-25T02:14:12.678Z,98609.72
2023-03-25T02:16:47.043Z,98615.44
2023-03-25T02:19:33.210Z,98603.38
2023-03-25T02:22:20.639Z,98601.66
2023-03-25T02:25:04.124Z,98605.59
2023-03-25T02:27:45.944Z,98596.22
2023-03-25T02:33:47.530Z,98595.03
2023-03-25T02:37:00.045Z,98598.25
2023-03-25T02:39:33.202Z,98593.59
2023-03-25T02:42:12.479Z,98577.91
2023-03-25T02:44:42.863Z,98605.44
2023-03-25T02:50:15.394Z,98595.75
2023-03-25T02:52:45.894Z,98583.06
2023-03-25T02:55:16.885Z,98595.28
2023-03-25T02:57:47.464Z,98596.06
2023-03-25T03:00:18.107Z,98585.19
2023-03-25T03:03:11.251Z,98586.50
2023-03-25T03:05:41.018Z,98587.06
2023-03-25T03:08:22.609Z,98585.44
2023-03-25T03:10:54.140Z,98580.81
2023-03-25T03:13:29.871Z,98582.22
2023-03-25T03:16:03.046Z,98576.03
2023-03-25T03:18:42.082Z,98583.34
2023-03-25T03:21:13.953Z,98596.75
2023-03-25T03:23:50.191Z,98595.44
2023-03-25T03:26:26.341Z,98601.56
2023-03-25T03:28:59.047Z,98604.28
2023-03-25T03:31:49.807Z,98602.44
2023-03-25T03:34:22.541Z,98591.75
2023-03-25T03:36:51.612Z,98598.28
2023-03-25T03:39:21.213Z,98596.53
2023-03-25T03:41:59.426Z,98590.53
2023-03-25T03:44:31.531Z,98591.63
2023-03-25T03:50:06.495Z,98593.75
2023-03-25T03:52:38.311Z,98585.97
2023-03-25T03:55:10.726Z,98592.94
2023-03-25T03:57:41.124Z,98611.00
2023-03-25T04:03:15.858Z,98606.56
2023-03-25T04:05:45.386Z,98608.44
2023-03-25T04:08:38.678Z,98602.38
2023-03-25T04:11:09.892Z,98591.81
2023-03-25T04:16:39.615Z,98593.16
2023-03-25T04:19:09.248Z,98590.72
2023-03-25T04:21:36.654Z,98596.94
2023-03-25T04:24:04.584Z,98602.66
2023-03-25T04:29:20.541Z,98591.78
2023-03-25T04:31:49.951Z,98602.22
2023-03-25T04:34:20.412Z,98600.41
2023-03-25T04:36:49.994Z,98600.41
2023-03-25T04:39:18.381Z,98600.41
2023-03-25T04:44:45.139Z,98599.63
2023-03-25T04:47:14.852Z,98594.81
2023-03-25T04:49:44.903Z,98594.28
2023-03-25T04:52:12.479Z,98595.69
2023-03-25T04:57:38.562Z,98599.19
2023-03-25T05:00:10.643Z,98592.31
2023-03-25T05:02:38.849Z,98585.88
2023-03-25T05:05:08.234Z,98585.13
2023-03-25T05:10:40.087Z,98586.13
2023-03-25T05:13:08.861Z,98589.34
2023-03-25T05:15:39.482Z,98586.00
2023-03-25T05:18:21.304Z,98596.38
2023-03-25T05:20:51.321Z,98590.16
2023-03-25T05:23:19.242Z,98581.19
2023-03-25T05:28:45.710Z,98595.56
2023-03-25T05:31:13.119Z,98584.25
2023-03-25T05:36:31.176Z,98590.84
2023-03-25T05:38:59.081Z,98593.38
2023-03-25T05:41:32.603Z,98587.41
2023-03-25T05:47:01.121Z,98588.50
2023-03-25T05:52:24.397Z,98591.31
2023-03-25T05:54:51.974Z,98602.53
2023-03-25T05:57:19.594Z,98596.81
2023-03-25T05:59:48.827Z,98608.44
2023-03-25T06:02:17.578Z,98603.59
2023-03-25T06:04:46.564Z,98610.91
2023-03-25T06:07:19.823Z,98615.44
2023-03-25T06:09:49.112Z,98606.00
2023-03-25T06:12:19.659Z,98613.44
2023-03-25T06:14:47.739Z,98610.16
2023-03-25T06:17:18.878Z,98610.78
2023-03-25T06:19:49.896Z,98602.59
2023-03-25T06:22:17.773Z,98606.66
2023-03-25T06:27:52.159Z,98609.06
2023-03-25T06:30:21.070Z,98607.41
2023-03-25T06:32:50.532Z,98618.91
2023-03-25T06:35:19.975Z,98633.22
2023-03-25T06:37:48.792Z,98627.59
2023-03-25T06:40:53.576Z,98621.53
2023-03-25T06:43:23.044Z,98620.03
2023-03-25T06:49:24.100Z,98624.69
2023-03-25T06:51:54.681Z,98625.38
2023-03-25T06:54:22.756Z,98627.97
2023-03-25T06:56:50.417Z,98627.84
2023-03-25T06:59:19.295Z,98632.97
2023-03-25T07:01:46.830Z,98632.00
2023-03-25T07:04:14.270Z,98635.56
2023-03-25T07:06:41.904Z,98631.84
2023-03-25T07:09:09.421Z,98615.41
2023-03-25T07:14:33.410Z,98624.25
2023-03-25T07:20:04.399Z,98614.66
2023-03-25T07:22:31.826Z,98630.19
2023-03-25T07:24:59.286Z,98629.91
2023-03-25T07:27:27.113Z,98624.97
2023-03-25T07:30:04.639Z,98631.94
2023-03-25T07:35:34.909Z,98638.06
2023-03-25T07:38:02.810Z,98611.22
2023-03-25T07:40:32.208Z,98626.84
2023-03-25T07:42:59.825Z,98636.94
2023-03-25T07:48:59.950Z,98630.75
2023-03-25T07:51:27.416Z,98630.22
2023-03-25T07:53:55.103Z,98647.53
2023-03-25T07:56:32.777Z,98643.72
2023-03-25T08:01:57.125Z,98644.28
2023-03-25T08:04:25.996Z,98643.44
2023-03-25T08:06:53.438Z,98639.09
2023-03-25T08:12:22.013Z,98640.44
2023-03-25T08:17:52.705Z,98647.34
2023-03-25T08:20:21.583Z,98661.38
2023-03-25T08:22:49.279Z,98661.44
2023-03-25T08:25:16.713Z,98657.84
2023-03-25T08:27:44.183Z,98646.69
2023-03-25T08:33:11.545Z,98649.41
2023-03-25T08:35:40.480Z,98635.66
2023-03-25T08:38:08.143Z,98648.72
2023-03-25T08:40:36.314Z,98654.59
2023-03-25T08:43:05.580Z,98642.03
2023-03-25T08:45:34.743Z,98641.59
2023-03-25T08:50:58.832Z,98643.91
2023-03-25T08:53:26.868Z,98651.47
2023-03-25T08:55:55.274Z,98646.16
2023-03-25T08:58:23.065Z,98640.03
2023-03-25T09:01:15.850Z,98651.72
2023-03-25T09:03:43.319Z,98659.50
2023-03-25T09:09:15.489Z,98659.88
2023-03-25T09:11:42.959Z,98668.31
2023-03-25T09:14:10.698Z,98653.78
2023-03-25T09:16:38.315Z,98668.75
2023-03-25T09:22:08.894Z,98675.28
2023-03-25T09:24:38.211Z,98669.13
2023-03-25T09:27:22.327Z,98677.31
2023-03-25T09:29:49.756Z,98668.16
2023-03-25T09:35:19.705Z,98643.84
2023-03-25T09:37:52.092Z,98658.63
2023-03-25T09:43:31.774Z,98660.50
2023-03-25T09:45:59.924Z,98651.69
2023-03-25T09:48:31.886Z,98657.22
2023-03-25T09:51:01.721Z,98655.06
2023-03-25T09:53:33.200Z,98666.50
2023-03-25T09:56:01.043Z,98674.53
2023-03-25T09:58:37.603Z,98659.84
2023-03-25T10:01:16.348Z,98657.06
2023-03-25T10:03:52.701Z,98644.22
2023-03-25T10:06:20.863Z,98659.78
2023-03-25T10:08:57.320Z,98652.09
2023-03-25T10:11:31.627Z,98663.56
2023-03-25T10:14:23.022Z,98684.53
2023-03-25T10:17:00.470Z,98662.22
2023-03-25T10:19:38.228Z,98671.72
2023-03-25T10:22:09.031Z,98665.03
2023-03-25T10:27:37.201Z,98652.53
2023-03-25T10:30:11.886Z,98661.50
2023-03-25T10:35:41.345Z,98656.19
2023-03-25T10:41:27.982Z,98656.66
2023-03-25T10:43:55.828Z,98648.50
2023-03-25T10:46:28.920Z,98653.09
2023-03-25T10:52:00.092Z,98660.13
2023-03-25T10:54:31.651Z,98662.84
2023-03-25T10:57:00.935Z,98659.91
2023-03-25T11:02:27.006Z,98649.63
2023-03-25T11:04:57.246Z,98663.69
2023-03-25T11:07:30.094Z,98667.72
2023-03-25T11:10:10.248Z,98661.66
2023-03-25T11:18:16.088Z,98659.69
2023-03-25T11:20:47.844Z,98642.19
2023-03-25T11:23:22.452Z,98639.59
2023-03-25T11:25:50.016Z,98638.56
2023-03-25T11:28:21.400Z,98668.78
2023-03-25T11:31:13.170Z,98667.28
2023-03-25T11:36:52.569Z,98659.59
2023-03-25T11:39:28.470Z,98631.25
2023-03-25T11:41:55.932Z,98649.19
2023-03-25T11:44:25.189Z,98635.91
2023-03-25T11:46:55.434Z,98644.50
2023-03-25T11:52:22.355Z,98651.34
2023-03-25T11:57:56.265Z,98635.34
2023-03-25T12:00:38.057Z,98634.88
2023-03-25T12:03:07.235Z,98638.94
2023-03-25T12:05:35.558Z,98644.75
2023-03-25T12:11:05.627Z,98622.88
2023-03-25T12:16:44.159Z,98627.69
2023-03-25T12:19:17.513Z,98634.97
2023-03-25T12:21:55.870Z,98611.97
2023-03-25T12:24:32.656Z,98621.47
2023-03-25T12:27:11.362Z,98612.50
2023-03-25T12:32:46.935Z,98613.03
2023-03-25T12:35:24.461Z,98594.06
2023-03-25T12:38:29.505Z,98578.00
2023-03-25T12:41:06.660Z,98599.41
2023-03-25T12:47:00.502Z,98612.97
2023-03-25T12:49:46.137Z,98627.81
2023-03-25T12:55:26.349Z,98616.63
2023-03-25T13:00:59.756Z,98623.31
2023-03-25T13:03:57.149Z,98632.09
2023-03-25T13:06:31.180Z,98644.47
2023-03-25T13:09:02.084Z,98660.09
2023-03-25T13:14:24.978Z,98666.00
2023-03-25T13:16:55.599Z,98655.78
2023-03-25T13:19:25.609Z,98661.81
2023-03-25T13:21:57.289Z,98670.41
2023-03-25T13:24:30.147Z,98675.47
2023-03-25T13:26:57.796Z,98658.50
2023-03-25T13:29:28.997Z,98651.72
2023-03-25T13:31:58.490Z,98653.06
2023-03-25T13:34:29.848Z,98659.00
2023-03-25T13:37:06.724Z,98635.53
2023-03-25T13:39:47.917Z,98631.91
2023-03-25T13:42:19.312Z,98619.66
2023-03-25T13:44:47.721Z,98618.47
2023-03-25T13:47:19.316Z,98627.84
2023-03-25T13:49:50.871Z,98620.09
2023-03-25T13:52:19.958Z,98606.22
2023-03-25T13:54:50.344Z,98598.41
2023-03-25T14:00:48.501Z,98587.84
2023-03-25T14:06:46.189Z,98605.34
2023-03-25T14:09:42.235Z,98614.06
2023-03-25T14:15:12.669Z,98635.59
2023-03-25T14:17:40.783Z,98629.00
2023-03-25T14:20:12.313Z,98630.88
2023-03-25T14:22:43.861Z,98631.72
2023-03-25T14:25:20.911Z,98625.44
2023-03-25T14:27:49.999Z,98626.81
2023-03-25T14:30:21.449Z,98626.81
2023-03-25T14:32:49.632Z,98631.97
2023-03-25T14:35:49.086Z,98629.47
2023-03-25T14:38:52.636Z,98642.81
2023-03-25T14:41:30.245Z,98638.88
2023-03-25T14:44:12.078Z,98642.16
2023-03-25T14:49:53.944Z,98644.47
2023-03-25T14:52:28.331Z,98661.28
2023-03-25T14:58:01.713Z,98631.47
2023-03-25T15:00:34.106Z,98625.03
2023-03-25T15:03:04.834Z,98624.22
2023-03-25T15:05:33.354Z,98626.22
2023-03-25T15:08:11.072Z,98623.31
2023-03-25T15:10:40.599Z,98610.06
2023-03-25T15:13:11.060Z,98635.56
2023-03-25T15:22:19.458Z,98630.22
2023-03-25T15:24:52.650Z,98627.47
2023-03-25T15:27:42.441Z,98629.75
2023-03-25T15:30:20.258Z,98632.00
2023-03-25T15:35:59.808Z,98636.53
2023-03-25T15:38:50.354Z,98636.16
2023-03-25T15:41:32.749Z,98638.31
2023-03-25T15:47:26.436Z,98632.22
2023-03-25T15:53:42.449Z,98631.91
2023-03-25T15:56:13.237Z,98639.22
2023-03-25T15:58:45.654Z,98640.28
2023-03-25T16:01:17.785Z,98636.03
2023-03-25T16:03:46.331Z,98629.47
2023-03-25T16:06:40.183Z,98631.06
2023-03-25T16:09:09.281Z,98626.09
2023-03-25T16:11:43.274Z,98635.94
2023-03-25T16:17:01.910Z,98640.22
2023-03-25T16:22:32.732Z,98642.13
2023-03-25T16:25:02.635Z,98636.81
2023-03-25T16:27:35.548Z,98638.06
2023-03-25T16:30:03.647Z,98633.59
2023-03-25T16:35:29.845Z,98626.22
2023-03-25T16:37:58.145Z,98631.94
2023-03-25T16:40:29.146Z,98628.50
2023-03-25T16:43:05.242Z,98627.91
2023-03-25T16:45:33.129Z,98639.78
2023-03-25T16:51:06.748Z,98650.94
2023-03-25T16:53:35.372Z,98672.16
2023-03-25T16:56:05.632Z,98712.63
2023-03-25T16:58:34.890Z,98688.91
2023-03-25T17:04:10.639Z,98695.47
2023-03-25T17:06:39.789Z,98681.56
2023-03-25T17:09:11.835Z,98686.53
2023-03-25T17:11:39.484Z,98679.84
2023-03-25T17:14:14.889Z,98701.28
2023-03-25T17:16:43.001Z,98691.91
2023-03-25T17:19:14.049Z,98693.84
2023-03-25T17:24:38.837Z,98698.28
2023-03-25T17:27:08.216Z,98706.84
2023-03-25T17:29:50.078Z,98713.56
2023-03-25T17:32:19.246Z,98707.28
2023-03-25T17:37:54.852Z,98703.59
2023-03-25T17:40:23.720Z,98704.63
2023-03-25T17:42:51.127Z,98709.56
2023-03-25T17:45:21.934Z,98712.34
2023-03-25T17:47:51.284Z,98730.28
2023-03-25T17:53:23.505Z,98766.22
2023-03-25T17:55:51.678Z,98767.03
2023-03-25T17:58:20.265Z,98772.97
2023-03-25T18:00:49.811Z,98776.66
2023-03-25T18:03:18.827Z,98779.63
2023-03-25T18:05:50.781Z,98769.75
2023-03-25T18:08:18.443Z,98765.56
2023-03-25T18:10:46.039Z,98777.72
2023-03-25T18:16:03.091Z,98763.47
2023-03-25T18:18:30.648Z,98768.13
2023-03-25T18:20:59.703Z,98766.50
2023-03-25T18:23:28.226Z,98779.34
2023-03-25T18:28:54.676Z,98789.09
2023-03-25T18:31:23.483Z,98794.38
2023-03-25T18:33:51.452Z,98793.44
2023-03-25T18:36:19.238Z,98792.72
2023-03-25T18:38:47.619Z,98787.19
2023-03-25T18:41:40.183Z,98780.59
2023-03-25T18:44:07.628Z,98786.47
2023-03-25T18:49:25.184Z,98784.16
2023-03-25T18:51:53.088Z,98779.63
2023-03-25T18:54:20.587Z,98787.09
2023-03-25T18:56:48.076Z,98791.75
2023-03-25T18:59:17.419Z,98799.84
2023-03-25T19:01:45.192Z,98804.06
2023-03-25T19:04:18.082Z,98809.63
2023-03-25T19:06:48.101Z,98803.69
2023-03-25T19:09:18.624Z,98809.25
2023-03-25T19:14:48.659Z,98820.13
2023-03-25T19:17:16.158Z,98818.09
2023-03-25T19:19:43.739Z,98827.22
2023-03-25T19:22:16.145Z,98831.22
2023-03-25T19:24:43.680Z,98825.66
2023-03-25T19:27:11.369Z,98833.69
2023-03-25T19:29:39.213Z,98837.50
2023-03-25T19:32:06.967Z,98844.34
2023-03-25T19:37:26.607Z,98844.91
2023-03-25T19:39:55.680Z,98851.38
2023-03-25T19:45:21.990Z,98858.38
2023-03-25T19:47:52.031Z,98850.56
2023-03-25T19:50:21.288Z,98858.56
2023-03-25T19:52:51.433Z,98859.13
2023-03-25T19:55:19.954Z,98861.16
2023-03-25T19:57:47.421Z,98868.16
2023-03-25T20:00:17.736Z,98875.81
2023-03-25T20:02:46.828Z,98867.72
2023-03-25T20:08:14.025Z,98879.94
2023-03-25T20:10:41.913Z,98876.19
2023-03-25T20:13:09.911Z,98865.91
2023-03-25T20:15:37.356Z,98886.03
2023-03-25T20:18:06.521Z,98872.66
2023-03-25T20:20:33.978Z,98874.22
2023-03-25T20:23:01.419Z,98872.91
2023-03-25T20:25:30.283Z,98863.44
2023-03-25T20:27:57.726Z,98865.09
2023-03-25T20:30:25.791Z,98872.56
2023-03-25T20:32:53.279Z,98870.06
2023-03-25T20:35:20.997Z,98863.16
2023-03-25T20:37:49.641Z,98867.91
2023-03-25T20:40:19.178Z,98867.53
2023-03-25T20:42:49.780Z,98868.81
2023-03-25T20:45:18.465Z,98869.91
2023-03-25T20:47:46.196Z,98872.72
2023-03-25T20:50:16.197Z,98867.72
2023-03-25T20:52:43.794Z,98876.28
2023-03-25T20:55:12.019Z,98859.31
2023-03-25T21:00:39.213Z,98878.09
2023-03-25T21:03:06.846Z,98874.75
2023-03-25T21:05:34.342Z,98888.25
2023-03-25T21:08:01.776Z,98889.53
2023-03-25T21:10:29.225Z,98875.56
2023-03-25T21:12:56.645Z,98896.44
2023-03-25T21:15:24.111Z,98897.00
2023-03-25T21:20:50.397Z,98898.00
2023-03-25T21:23:18.339Z,98893.50
2023-03-25T21:25:46.137Z,98913.59
2023-03-25T21:31:09.701Z,98911.31
2023-03-25T21:36:45.328Z,98919.53
2023-03-25T21:39:12.900Z,98924.84
2023-03-25T21:41:40.352Z,98927.56
2023-03-25T21:44:08.162Z,98925.09
2023-03-25T21:46:36.671Z,98926.47
2023-03-25T21:49:04.384Z,98927.91
2023-03-25T21:51:32.146Z,98926.19
2023-03-25T21:54:00.922Z,98927.28
2023-03-25T21:59:25.851Z,98924.28
2023-03-25T22:01:53.591Z,98925.13
2023-03-25T22:04:21.114Z,98928.28
2023-03-25T22:09:49.169Z,98932.22
2023-03-25T22:12:16.719Z,98931.50
2023-03-25T22:14:45.717Z,98936.97
2023-03-25T22:17:13.187Z,98937.88
2023-03-25T22:19:41.026Z,98938.34
2023-03-25T22:22:10.948Z,98940.78
2023-03-25T22:24:38.403Z,98944.53
2023-03-25T22:27:07.170Z,98954.75
2023-03-25T22:29:35.043Z,98949.09
2023-03-25T22:35:05.415Z,98960.78
2023-03-25T22:37:36.708Z,98956.03
2023-03-25T22:40:08.360Z,98944.25
2023-03-25T22:42:37.126Z,98954.22
2023-03-25T22:45:06.397Z,98939.78
2023-03-25T22:47:33.850Z,98957.69
2023-03-25T22:50:01.312Z,98952.94
2023-03-25T22:52:28.931Z,98959.78
2023-03-25T22:54:56.409Z,98959.78
2023-03-25T22:57:23.934Z,98968.09
2023-03-25T22:59:52.719Z,98967.97
2023-03-25T23:02:20.303Z,98964.69
2023-03-25T23:04:47.766Z,98971.94
2023-03-25T23:07:15.286Z,98973.38
2023-03-25T23:12:47.110Z,98972.50
2023-03-25T23:18:18.032Z,98980.31
2023-03-25T23:20:49.305Z,98977.31
2023-03-25T23:23:17.479Z,98983.09
2023-03-25T23:25:44.917Z,98974.56
2023-03-25T23:28:12.388Z,98981.25
2023-03-25T23:30:45.601Z,98972.56
2023-03-25T23:33:13.067Z,98978.06
2023-03-25T23:35:41.876Z,98979.97
2023-03-25T23:38:09.341Z,98974.28
2023-03-25T23:40:36.776Z,98972.63
2023-03-25T23:45:55.316Z,98978.22
2023-03-25T23:48:24.388Z,98977.09
2023-03-25T23:50:53.258Z,98988.38
2023-03-25T23:53:21.418Z,98984.69
2023-03-25T23:55:51.501Z,98981.97
2023-03-25T23:58:19.509Z,98986.25
